Latest Weather Observations for Hindmarsh Island

IDS60901

Issued at 10:55 pm CST Thursday 24 April 2014 (issued every 10 minutes, with the page automatically refreshed every 10 minutes)

About weather observations | Map of Adelaide area stations | Latest observations for Adelaide area | Other Formats
Station Details ID: 023894 Name: HINDMARSH ISLAND AWS Lat: -35.52 Lon: 138.82 Height: 11.0 m
Data from the previous 72 hours. | See also: Recent months at Hindmarsh Island
Date/Time
CST
Tmp

°C
App
Tmp
°C
Dew
Point
°C
Rel
Hum
%
Delta-T

°C
Wind Press
QNH
hPa
Press
MSL
hPa
Rain
since
9 am
mm
Dir
 
Spd
km/h
Gust
km/h
Spd
kts
Gust
kts
24/10:30pm 10.4 7.5 6.5 77 1.8 N 11 11 6 6 1020.2 - 0.0
24/10:00pm 10.9 8.5 6.8 76 1.9 N 9 11 5 6 1020.4 - 0.0
24/09:30pm 11.6 9.4 6.3 70 2.5 ENE 7 9 4 5 1020.4 - 0.0
24/09:00pm 11.4 8.3 5.7 68 2.6 E 11 13 6 7 1020.3 1020.2 0.0
24/08:30pm 11.4 8.2 5.1 65 2.9 ESE 11 13 6 7 1020.0 - 0.0
24/08:00pm 12.6 9.1 5.5 62 3.3 SE 13 17 7 9 1019.8 - 0.0
24/07:30pm 14.2 9.7 6.1 58 3.9 SSE 19 20 10 11 1019.6 - 0.0
24/07:00pm 14.0 10.0 6.8 62 3.5 SSE 17 22 9 12 1019.5 - 0.0
24/06:30pm 14.1 10.2 6.9 62 3.5 SE 17 20 9 11 1019.4 - 0.0
24/06:00pm 14.4 10.0 6.7 60 3.7 SSE 19 24 10 13 1019.3 1019.1 0.0
24/05:30pm 14.9 10.6 7.7 62 3.6 SSE 20 24 11 13 1018.9 - 0.0
24/05:00pm 15.4 11.9 7.4 59 4.0 SSE 15 24 8 13 1018.8 - 0.0
24/04:30pm 15.9 12.3 4.9 48 5.2 SSE 13 22 7 12 1018.8 - 0.0
24/04:00pm 16.4 12.2 5.7 49 5.2 SSE 17 24 9 13 1018.9 - 0.0
24/03:30pm 16.5 11.9 5.8 49 5.2 SSE 19 26 10 14 1018.8 - 0.0
24/03:00pm 17.4 13.1 7.7 53 4.9 SSE 20 26 11 14 1018.7 1018.6 0.0
24/02:30pm 17.4 13.0 7.5 52 5.0 SSE 20 26 11 14 1018.6 - 0.0
24/02:00pm 17.2 12.6 6.7 50 5.2 SSE 20 26 11 14 1018.6 - 0.0
24/01:30pm 17.8 13.3 8.4 54 4.8 SSE 22 26 12 14 1018.5 - 0.0
24/01:00pm 17.4 12.3 7.5 52 5.0 SSE 24 32 13 17 1018.7 - 0.0
24/12:30pm 17.6 12.6 7.9 53 4.9 SSE 24 32 13 17 1018.8 - 0.0
24/12:00pm 17.6 12.6 8.2 54 4.8 SSE 24 32 13 17 1019.0 1018.9 0.0
24/11:30am 17.5 12.6 8.6 56 4.6 SSE 24 30 13 16 1019.2 - 0.0
24/11:00am 17.6 11.9 8.2 54 4.8 S 28 33 15 18 1019.0 - 0.0
24/10:30am 17.1 10.6 9.0 59 4.2 S 33 39 18 21 1018.9 - 0.0
24/10:00am 16.5 10.3 9.9 65 3.5 S 33 39 18 21 1018.7 - 0.0
24/09:30am 16.2 10.3 10.5 69 3.0 S 32 39 17 21 1018.8 - 0.0
24/09:00am 16.1 10.2 11.3 73 2.6 S 33 39 18 21 1018.4 1018.3 0.0
24/08:30am 15.9 10.2 11.9 77 2.2 S 33 39 18 21 1017.9 - 0.0
24/08:00am 15.6 9.1 11.8 78 2.1 S 37 48 20 26 1017.5 - 0.0
24/07:30am 15.0 9.6 12.7 86 1.3 S 33 44 18 24 1016.9 - 0.0
24/07:17am 16.2 11.3 12.7 80 1.9 S 30 48 16 26 1016.5 - 0.0
24/07:00am 16.0 10.7 12.6 80 1.9 S 32 39 17 21 1016.3 - 0.0
24/06:30am 15.7 10.7 13.4 86 1.3 S 32 43 17 23 1015.9 - 0.0
24/06:22am 16.2 11.7 13.7 85 1.4 SW 30 43 16 23 1015.8 - 0.0
24/06:00am 15.5 13.1 12.8 84 1.5 W 17 24 9 13 1015.6 1015.5 0.0
24/05:30am 15.6 11.6 13.1 85 1.4 WSW 26 37 14 20 1015.3 - 0.0
24/05:00am 16.3 13.3 12.5 78 2.1 WSW 20 28 11 15 1014.8 - 0.0
24/04:30am 16.1 13.7 12.5 79 2.0 W 17 24 9 13 1014.6 - 0.0
24/04:00am 16.1 13.3 12.5 79 2.0 W 19 24 10 13 1014.1 - 0.0
24/03:30am 16.2 13.4 12.6 79 2.0 W 19 28 10 15 1014.0 - 0.0
24/03:00am 16.0 12.1 12.2 78 2.1 W 24 33 13 18 1013.9 1013.8 0.0
24/02:30am 15.9 12.8 12.3 79 2.0 W 20 28 11 15 1014.0 - 0.0
24/02:00am 16.0 12.6 12.4 79 2.0 W 22 30 12 16 1014.0 - 0.0
24/01:30am 16.3 12.0 12.1 76 2.3 W 26 35 14 19 1014.3 - 0.0
24/01:00am 16.3 13.1 11.9 75 2.4 W 20 30 11 16 1014.2 - 0.0
24/12:30am 16.2 13.0 12.0 76 2.3 W 20 26 11 14 1014.3 - 0.0
24/12:00am 16.6 14.0 13.1 80 2.0 WSW 19 22 10 12 1014.6 1014.5 0.0
 
Date/Time
CST
Tmp

°C
App
Tmp
°C
Dew
Point
°C
Rel
Hum
%
Delta-T

°C
Wind Press
QNH
hPa
Press
MSL
hPa
Rain
since
9 am
mm
Dir
 
Spd
km/h
Gust
km/h
Spd
kts
Gust
kts
23/11:30pm 15.6 14.8 11.0 74 2.5 NW 6 9 3 5 1014.7 - 0.0
23/11:00pm 16.0 15.9 10.7 71 2.8 WNW 2 6 1 3 1014.9 - 0.0
23/10:30pm 15.9 14.8 10.0 68 3.1 NW 6 9 3 5 1014.8 - 0.0
23/10:00pm 16.3 14.9 9.7 65 3.4 WNW 7 13 4 7 1014.8 - 0.0
23/09:30pm 16.0 14.1 9.0 63 3.6 WNW 9 11 5 6 1014.8 - 0.0
23/09:00pm 16.2 14.5 8.2 59 4.0 W 7 9 4 5 1014.6 1014.5 0.0
23/08:30pm 16.3 13.3 7.8 57 4.3 NNW 13 19 7 10 1014.5 - 0.0
23/08:00pm 16.3 12.9 7.8 57 4.3 N 15 20 8 11 1014.5 - 0.0
23/07:30pm 16.8 13.1 8.0 56 4.5 N 17 22 9 12 1014.3 - 0.0
23/07:00pm 16.7 13.7 7.9 56 4.4 NNW 13 17 7 9 1014.4 - 0.0
23/06:30pm 16.9 14.2 7.5 54 4.7 NNW 11 15 6 8 1014.3 - 0.0
23/06:00pm 17.8 14.8 7.5 51 5.2 NW 13 17 7 9 1014.0 1013.9 0.0
23/05:30pm 18.9 15.1 7.4 47 5.8 NW 17 20 9 11 1014.0 - 0.0
23/05:00pm 20.3 16.1 5.9 39 7.2 NW 17 22 9 12 1013.9 - 0.0
23/04:30pm 20.1 15.4 5.0 37 7.4 NW 19 22 10 12 1013.7 - 0.0
23/04:00pm 20.3 15.6 3.1 32 8.1 NW 17 28 9 15 1013.7 - 0.0
23/03:30pm 21.1 15.9 2.4 29 8.7 NW 19 28 10 15 1013.8 - 0.0
23/03:00pm 21.6 17.3 3.3 30 8.7 NNW 15 22 8 12 1013.9 1013.8 0.0
23/02:30pm 20.7 15.8 3.9 33 8.1 WNW 19 24 10 13 1014.2 - 0.0
23/02:00pm 20.7 16.2 5.9 38 7.4 W 19 24 10 13 1014.4 - 0.0
23/01:30pm 20.5 15.9 6.4 40 7.1 WNW 20 28 11 15 1014.7 - 0.0
23/01:00pm 19.9 17.6 8.9 49 5.8 S 11 17 6 9 1015.3 - 0.0
23/12:30pm 19.4 16.9 8.1 48 5.8 SSW 11 15 6 8 1015.9 - 0.0
23/12:00pm 19.2 17.3 9.1 52 5.3 S 9 13 5 7 1016.6 1016.5 0.0
23/11:30am 18.4 17.0 9.5 56 4.7 S 7 9 4 5 1017.1 - 0.0
23/11:00am 18.4 16.4 8.7 53 5.0 WSW 9 13 5 7 1017.6 - 0.0
23/10:30am 18.5 16.9 8.7 53 5.1 N 7 13 4 7 1017.9 - 0.0
23/10:00am 16.6 14.5 8.3 58 4.2 N 9 13 5 7 1018.0 - 0.0
23/09:30am 15.1 13.3 9.5 69 2.9 N 9 13 5 7 1018.2 - 0.0
23/09:00am 13.5 12.7 9.6 77 2.0 NNW 4 9 2 5 1018.4 1018.3 0.0
23/08:30am 11.8 9.8 8.8 82 1.5 NNW 9 11 5 6 1018.3 - 0.0
23/08:00am 10.6 8.4 8.0 84 1.3 NNW 9 11 5 6 1018.0 - 0.0
23/07:30am 10.6 8.5 8.2 85 1.2 N 9 13 5 7 1017.6 - 0.0
23/07:00am 10.0 7.4 7.8 86 1.1 NW 11 11 6 6 1017.5 - 0.0
23/06:30am 9.6 6.9 7.5 87 1.0 NNW 11 13 6 7 1017.3 - 0.0
23/06:00am 9.6 6.9 7.5 87 1.0 NNW 11 13 6 7 1017.2 1017.1 0.0
23/05:30am 9.8 7.5 7.6 86 1.1 N 9 11 5 6 1017.2 - 0.0
23/05:00am 9.6 6.9 7.2 85 1.1 NNW 11 13 6 7 1017.3 - 0.0
23/04:30am 9.8 6.8 7.6 86 1.1 N 13 15 7 8 1017.1 - 0.0
23/04:00am 10.1 7.8 7.5 84 1.2 NW 9 11 5 6 1017.2 - 0.0
23/03:30am 10.0 7.0 7.8 86 1.1 N 13 15 7 8 1017.1 - 0.0
23/03:00am 10.3 7.7 7.9 85 1.2 N 11 15 6 8 1017.4 1017.3 0.0
23/02:30am 11.0 8.5 8.2 83 1.4 NW 11 11 6 6 1017.5 - 0.0
23/02:00am 11.1 8.6 8.3 83 1.4 NW 11 13 6 7 1017.9 - 0.0
23/01:30am 10.5 8.3 7.7 83 1.3 NNW 9 11 5 6 1018.2 - 0.0
23/01:00am 11.0 9.2 8.0 82 1.5 NNW 7 7 4 4 1018.2 - 0.0
23/12:30am 11.3 9.6 8.2 81 1.5 NNW 7 9 4 5 1018.4 - 0.0
23/12:00am 12.0 9.6 8.5 79 1.7 NNW 11 11 6 6 1018.7 1018.7 0.0
 
Date/Time
CST
Tmp

°C
App
Tmp
°C
Dew
Point
°C
Rel
Hum
%
Delta-T

°C
Wind Press
QNH
hPa
Press
MSL
hPa
Rain
since
9 am
mm
Dir
 
Spd
km/h
Gust
km/h
Spd
kts
Gust
kts
22/11:30pm 12.4 10.4 8.5 77 1.9 NW 9 11 5 6 1018.8 - 0.0
22/11:00pm 12.5 10.4 8.2 75 2.1 NW 9 11 5 6 1018.9 - 0.0
22/10:30pm 12.4 10.7 8.5 77 1.9 NNW 7 9 4 5 1019.1 - 0.0
22/10:00pm 13.4 11.9 8.5 72 2.4 E 6 7 3 4 1019.1 - 0.0
22/09:30pm 15.0 12.8 9.4 69 2.9 S 11 15 6 8 1019.2 - 0.0
22/09:00pm 14.9 12.7 9.3 69 2.9 S 11 15 6 8 1019.2 1019.1 0.0
22/08:30pm 14.9 12.6 9.1 68 3.0 S 11 13 6 7 1019.1 - 0.0
22/08:00pm 15.2 12.5 8.9 66 3.2 S 13 17 7 9 1019.1 - 0.0
22/07:30pm 15.5 12.5 9.2 66 3.2 S 15 19 8 10 1019.0 - 0.0
22/07:00pm 15.3 12.1 8.5 64 3.4 S 15 19 8 10 1018.8 - 0.0
22/06:30pm 15.3 11.7 8.5 64 3.4 S 17 20 9 11 1018.6 - 0.0
22/06:00pm 15.4 11.9 8.9 65 3.3 SSW 17 19 9 10 1018.4 1018.3 0.0
22/05:30pm 15.9 11.9 9.1 64 3.5 S 20 24 11 13 1018.1 - 0.0
22/05:00pm 16.6 12.3 9.5 63 3.7 SSW 22 26 12 14 1017.8 - 0.0
22/04:30pm 16.6 12.3 9.3 62 3.8 S 22 28 12 15 1017.6 - 0.0
22/04:00pm 17.0 11.4 8.7 58 4.3 SSW 28 32 15 17 1017.5 - 0.0
22/03:30pm 17.2 12.0 8.9 58 4.3 SSW 26 30 14 16 1017.4 - 0.0
22/03:00pm 18.0 13.0 9.6 58 4.4 SSW 26 32 14 17 1017.2 1017.1 0.0
22/02:30pm 17.5 12.4 9.2 58 4.3 SSW 26 33 14 18 1017.1 - 0.0
22/02:00pm 18.4 12.8 10.0 58 4.5 SSW 30 33 16 18 1016.9 - 0.0
22/01:30pm 18.4 13.0 9.5 56 4.7 SSW 28 33 15 18 1016.9 - 0.0
22/01:00pm 18.8 13.1 8.2 50 5.5 SSW 28 35 15 19 1017.0 - 0.0
22/12:30pm 18.4 12.8 10.0 58 4.5 SSW 30 33 16 18 1017.3 - 0.0
22/12:00pm 19.0 14.4 9.8 55 4.9 SSW 24 30 13 16 1017.4 1017.4 0.0
22/11:30am 19.2 14.5 10.5 57 4.7 SSW 26 32 14 17 1017.5 - 0.0
22/11:00am 19.0 14.5 10.0 56 4.8 SSW 24 32 13 17 1017.6 - 0.0
22/10:30am 18.1 13.5 11.0 63 3.8 SSW 26 33 14 18 1017.5 - 0.0
22/10:00am 18.6 14.6 10.4 59 4.4 SSW 22 28 12 15 1017.3 - 0.0
22/09:30am 17.9 12.9 9.5 58 4.4 SSW 26 30 14 16 1017.3 - 0.0
22/09:00am 16.9 12.0 9.8 63 3.7 SSW 26 30 14 16 1017.1 1017.0 1.0
22/08:30am 17.3 12.1 10.2 63 3.8 SSW 28 32 15 17 1016.6 - 1.0
22/08:00am 16.5 11.4 10.6 68 3.1 S 28 33 15 18 1016.2 - 1.0
22/07:30am 16.4 10.6 10.9 70 2.9 SSW 32 37 17 20 1015.8 - 1.0
22/07:00am 16.3 10.4 11.2 72 2.7 SSW 33 39 18 21 1015.3 - 1.0
22/06:30am 16.4 10.4 12.2 76 2.3 SSW 35 41 19 22 1014.9 - 1.0
22/06:00am 16.5 12.1 12.8 79 2.1 SSW 28 39 15 21 1014.5 1014.4 1.0
22/05:30am 16.7 13.3 13.6 82 1.7 SSW 24 30 13 16 1014.4 - 1.0
22/05:00am 16.5 13.4 13.4 82 1.7 SSW 22 28 12 15 1014.3 - 1.0
22/04:30am 16.5 11.8 13.2 81 1.8 SSW 30 33 16 18 1013.7 - 1.0
22/04:00am 16.4 11.5 13.7 84 1.5 SSW 32 37 17 20 1012.9 - 1.0
22/03:30am 16.8 12.5 14.3 85 1.4 SSW 30 35 16 19 1012.7 - 1.0
22/03:00am 17.4 15.4 15.4 88 1.2 SSW 20 24 11 13 1012.7 1012.5 1.0
22/02:30am 17.3 16.2 15.3 88 1.2 SSW 15 17 8 9 1012.3 - 1.0
22/02:00am 17.2 16.4 15.0 87 1.3 SW 13 17 7 9 1012.5 - 1.0
22/01:30am 17.3 14.4 15.1 87 1.3 SSW 24 28 13 15 1012.2 - 1.0
22/01:00am 17.6 14.8 15.4 87 1.3 SSW 24 37 13 20 1012.1 - 1.0
22/12:30am 17.9 13.4 15.5 86 1.4 SW 33 43 18 23 1012.1 - 1.0
22/12:15am 17.4 13.3 13.9 80 2.0 WSW 28 46 15 25 1011.7 - 1.0
22/12:00am 17.7 15.3 14.4 81 1.9 N 20 28 11 15 1011.2 1011.2 0.8
 
Date/Time
CST
Tmp

°C
App
Tmp
°C
Dew
Point
°C
Rel
Hum
%
Delta-T

°C
Wind Press
QNH
hPa
Press
MSL
hPa
Rain
since
9 am
mm
Dir
 
Spd
km/h
Gust
km/h
Spd
kts
Gust
kts
21/11:30pm 18.5 18.0 14.8 79 2.2 N 11 15 6 8 1012.1 - 0.0
21/11:00pm 18.1 19.1 14.4 79 2.1 S 2 9 1 5 1011.2 - 0.0

Latest Capital City Observations: Canberra | Sydney | Melbourne | Brisbane | Adelaide | Perth | Hobart | Darwin

Other Formats:

Comma delimited format used in spreadsheet applications
http://www.bom.gov.au/fwo/IDS60901/IDS60901.94677.axf

JavaScript Object Notation format (JSON) in row-major order
http://www.bom.gov.au/fwo/IDS60901/IDS60901.94677.json